VCP weather

Viracopos International Airport
Campinas, São Paulo, Brazil

Public forecast

Using degrees Celsius for public forecast. Weather courtesy of forecast.io.

METAR (pilot weather report)

Retrieved 2019/09/16 01:00 UTC (35 minutes ago):

SBKP 160100Z 08006KT 060V120 CAVOK 25/16 Q1018

TAF (pilot weather forecast)

Retrieved 2019/09/16 00:00 UTC (2 hours ago):

TAF SBKP 152200Z 1600/1624 12009KT CAVOK TN20/1609Z TX34/1617Z BECMG 1605/1607 11006KT PROB30 1609/1612 6000 NSC BECMG 1612/1614 03006KT BECMG 1616/1618 19005KT BECMG 1622/1624 12008KT RMK PGE